createdAt,value
2019-02-11T00:03:05.604Z,0.94
2019-02-11T00:08:12.731Z,0.89
2019-02-11T00:13:19.862Z,1.03
2019-02-11T00:18:27.018Z,1.03
2019-02-11T00:23:34.122Z,1.07
2019-02-11T00:28:41.366Z,0.96
2019-02-11T00:33:48.399Z,0.92
2019-02-11T00:38:55.529Z,0.96
2019-02-11T00:44:02.670Z,1.11
2019-02-11T00:49:09.809Z,1.14
2019-02-11T00:54:16.946Z,1.16
2019-02-11T00:59:24.087Z,1.14
2019-02-11T01:04:31.259Z,1.38
2019-02-11T01:09:38.407Z,1.33
2019-02-11T01:14:45.523Z,1.41
2019-02-11T01:19:52.868Z,1.44
2019-02-11T01:25:00.006Z,1.89
2019-02-11T01:30:07.125Z,1.80
2019-02-11T01:35:14.282Z,1.77
2019-02-11T01:40:21.430Z,1.83
2019-02-11T01:45:28.566Z,1.81
2019-02-11T01:50:35.692Z,1.97
2019-02-11T01:55:42.860Z,1.83
2019-02-11T02:00:50.029Z,1.93
2019-02-11T02:05:57.401Z,2.64
2019-02-11T02:11:04.817Z,2.40
2019-02-11T02:16:11.963Z,2.44
2019-02-11T02:21:19.131Z,2.06
2019-02-11T02:26:26.262Z,2.16
2019-02-11T02:31:33.501Z,2.18
2019-02-11T02:36:40.643Z,2.21
2019-02-11T02:41:47.806Z,2.69
2019-02-11T02:46:54.990Z,3.47
2019-02-11T02:52:02.254Z,4.48
2019-02-11T02:57:09.396Z,5.03
2019-02-11T03:02:16.581Z,4.60
2019-02-11T03:07:23.752Z,4.61
2019-02-11T03:12:30.884Z,5.44
2019-02-11T03:17:38.003Z,6.20
2019-02-11T03:22:45.126Z,5.66
2019-02-11T03:27:52.307Z,6.16
2019-02-11T03:32:59.434Z,5.71
2019-02-11T03:38:06.602Z,5.40
2019-02-11T03:43:13.749Z,5.79
2019-02-11T03:48:20.890Z,5.93
2019-02-11T03:53:28.120Z,6.75
2019-02-11T03:58:35.280Z,5.81
2019-02-11T04:03:42.418Z,4.86
2019-02-11T04:08:49.509Z,4.73
2019-02-11T04:13:56.619Z,4.92
2019-02-11T04:19:03.951Z,5.89
2019-02-11T04:24:11.078Z,6.27
2019-02-11T04:29:18.202Z,6.42
2019-02-11T04:34:25.330Z,7.35
2019-02-11T04:39:32.407Z,7.15
2019-02-11T04:44:39.475Z,7.99
2019-02-11T04:49:46.607Z,9.47
2019-02-11T04:54:53.970Z,9.42
2019-02-11T05:00:01.148Z,10.74
2019-02-11T05:05:08.226Z,11.15
2019-02-11T05:10:15.313Z,11.92
2019-02-11T05:15:22.687Z,12.16
2019-02-11T05:20:29.796Z,12.61
2019-02-11T05:25:36.987Z,11.50
2019-02-11T05:30:44.313Z,12.47
2019-02-11T05:35:51.432Z,10.35
2019-02-11T05:40:58.689Z,11.03
2019-02-11T05:46:05.773Z,10.21
2019-02-11T05:51:12.887Z,10.50
2019-02-11T05:56:19.966Z,10.29
2019-02-11T06:01:27.035Z,9.77
2019-02-11T06:06:34.536Z,10.50
2019-02-11T06:11:41.634Z,11.52
2019-02-11T06:16:48.751Z,11.34
2019-02-11T06:21:55.874Z,10.78
2019-02-11T06:27:03.048Z,10.71
2019-02-11T06:32:10.119Z,11.56
2019-02-11T06:37:17.191Z,10.73
2019-02-11T06:42:24.286Z,10.16
2019-02-11T06:47:31.391Z,9.77
2019-02-11T06:52:38.476Z,9.48
2019-02-11T06:57:45.557Z,10.30
2019-02-11T07:02:52.688Z,9.86
2019-02-11T07:07:59.791Z,10.51
2019-02-11T07:13:06.883Z,10.85
2019-02-11T07:18:13.963Z,9.65
2019-02-11T07:23:21.035Z,11.36
2019-02-11T07:28:28.158Z,9.66
2019-02-11T07:33:35.272Z,10.12
2019-02-11T07:38:42.352Z,9.10
2019-02-11T07:43:49.681Z,10.53
2019-02-11T07:48:56.853Z,9.27
2019-02-11T07:54:03.925Z,8.81
2019-02-11T07:59:11.055Z,9.51
2019-02-11T08:04:18.144Z,9.27
2019-02-11T08:09:25.227Z,9.28
2019-02-11T08:14:35.071Z,9.27
2019-02-11T08:19:43.165Z,9.89
2019-02-11T08:24:52.261Z,8.87
2019-02-11T08:30:02.299Z,10.35
2019-02-11T08:35:12.314Z,10.30
2019-02-11T08:40:10.673Z,11.05
2019-02-11T08:45:17.827Z,12.93
2019-02-11T08:50:24.903Z,11.03
2019-02-11T08:55:32.216Z,12.12
2019-02-11T09:00:39.333Z,10.45
2019-02-11T09:05:46.790Z,9.97
2019-02-11T09:10:54.274Z,9.98
2019-02-11T09:16:01.507Z,10.55
2019-02-11T09:21:08.620Z,11.16
2019-02-11T09:26:16.100Z,11.69
2019-02-11T09:31:23.895Z,12.09
2019-02-11T09:36:32.270Z,10.33
2019-02-11T09:41:39.598Z,10.85
2019-02-11T09:46:46.824Z,9.51
2019-02-11T09:51:55.534Z,10.02
2019-02-11T09:57:02.727Z,8.85
2019-02-11T10:02:09.961Z,9.75
2019-02-11T10:07:17.102Z,10.57
2019-02-11T10:12:24.184Z,9.74
2019-02-11T10:17:33.929Z,9.64
2019-02-11T10:22:42.937Z,9.43
2019-02-11T10:27:52.638Z,9.92
2019-02-11T10:33:01.339Z,9.21
2019-02-11T10:38:08.594Z,9.89
2019-02-11T10:43:15.689Z,9.79
2019-02-11T10:48:22.797Z,9.55
2019-02-11T10:53:30.025Z,9.38
2019-02-11T10:58:37.135Z,8.66
2019-02-11T11:03:44.240Z,8.38
2019-02-11T11:08:51.323Z,7.28
2019-02-11T11:13:58.627Z,8.01
2019-02-11T11:19:05.962Z,8.65
2019-02-11T11:24:13.043Z,7.90
2019-02-11T11:29:20.130Z,7.58
2019-02-11T11:34:27.495Z,8.02
2019-02-11T11:39:34.557Z,8.66
2019-02-11T11:44:42.312Z,7.63
2019-02-11T11:49:49.639Z,8.10
2019-02-11T11:54:56.812Z,7.44
2019-02-11T12:00:03.941Z,7.70
2019-02-11T12:05:11.015Z,8.22
2019-02-11T12:10:18.082Z,7.66
2019-02-11T12:15:25.184Z,8.89
2019-02-11T12:20:33.620Z,7.34
2019-02-11T12:25:38.874Z,8.01
2019-02-11T12:30:45.984Z,6.33
2019-02-11T12:35:53.058Z,7.27
2019-02-11T12:41:00.157Z,5.74
2019-02-11T12:46:07.273Z,5.44
2019-02-11T12:51:14.389Z,6.06
2019-02-11T12:56:21.470Z,5.99
2019-02-11T13:01:28.596Z,5.14
2019-02-11T13:06:35.670Z,5.60
2019-02-11T13:11:42.774Z,4.19
2019-02-11T13:16:49.881Z,3.63
2019-02-11T13:21:57.014Z,3.91
2019-02-11T13:27:04.093Z,4.05
2019-02-11T13:32:11.216Z,4.19
2019-02-11T13:37:18.489Z,4.52
2019-02-11T13:42:25.776Z,3.12
2019-02-11T13:47:50.755Z,3.58
2019-02-11T13:52:39.822Z,4.35
2019-02-11T13:57:46.945Z,3.37
2019-02-11T14:02:54.237Z,4.07
2019-02-11T14:08:01.621Z,4.53
2019-02-11T14:13:10.996Z,4.44
2019-02-11T14:18:18.839Z,4.28
2019-02-11T14:23:25.941Z,4.47
2019-02-11T14:28:33.216Z,4.60
2019-02-11T14:33:40.341Z,4.64
2019-02-11T14:38:47.564Z,5.00
2019-02-11T14:43:54.957Z,5.00
2019-02-11T14:49:02.276Z,4.85
2019-02-11T14:54:09.976Z,4.26
2019-02-11T14:59:17.073Z,4.03
2019-02-11T15:04:23.511Z,4.87
2019-02-11T15:09:30.595Z,5.48
2019-02-11T15:14:37.709Z,5.53
2019-02-11T15:19:44.795Z,4.29
2019-02-11T15:24:52.155Z,4.78
2019-02-11T15:29:59.608Z,5.37
2019-02-11T15:35:06.903Z,4.70
2019-02-11T15:40:14.429Z,6.18
2019-02-11T15:45:22.899Z,6.82
2019-02-11T15:50:31.169Z,7.16
2019-02-11T15:55:38.292Z,6.45
2019-02-11T16:00:45.365Z,5.51
2019-02-11T16:05:52.672Z,6.97
2019-02-11T16:11:01.412Z,6.79
2019-02-11T16:16:06.460Z,6.51
2019-02-11T16:21:13.581Z,7.06
2019-02-11T16:26:20.765Z,6.38
2019-02-11T16:31:28.270Z,6.86
2019-02-11T16:36:35.709Z,7.76
2019-02-11T16:41:42.806Z,6.50
2019-02-11T16:46:50.358Z,10.90
2019-02-11T16:51:57.582Z,9.54
2019-02-11T16:57:04.751Z,8.77
2019-02-11T17:02:12.033Z,8.09
2019-02-11T17:07:19.157Z,7.68
2019-02-11T17:12:26.244Z,11.68
2019-02-11T17:17:33.380Z,11.95
2019-02-11T17:22:40.553Z,13.28
2019-02-11T17:27:47.665Z,12.77
2019-02-11T17:32:54.823Z,8.49
2019-02-11T17:38:02.335Z,8.40
2019-02-11T17:43:09.419Z,8.15
2019-02-11T17:48:16.517Z,9.08
2019-02-11T17:53:23.707Z,9.48
2019-02-11T17:58:30.844Z,9.47
2019-02-11T18:03:37.961Z,8.53
2019-02-11T18:08:45.432Z,9.04
2019-02-11T18:13:53.765Z,8.13
2019-02-11T18:19:00.851Z,8.57
2019-02-11T18:24:07.977Z,6.81
2019-02-11T18:29:15.108Z,7.01
2019-02-11T18:34:22.442Z,6.85
2019-02-11T18:39:29.568Z,7.12
2019-02-11T18:44:36.669Z,7.01
2019-02-11T18:49:43.925Z,7.20
2019-02-11T18:54:51.007Z,8.95
2019-02-11T18:59:58.112Z,8.95
2019-02-11T19:05:05.364Z,8.55
2019-02-11T19:10:12.617Z,8.25
2019-02-11T19:15:19.886Z,8.09
2019-02-11T19:20:26.952Z,9.03
2019-02-11T19:25:34.101Z,7.30
2019-02-11T19:30:41.213Z,9.89
2019-02-11T19:35:48.360Z,9.30
2019-02-11T19:40:55.478Z,8.83
2019-02-11T19:46:04.030Z,8.15
2019-02-11T19:51:11.146Z,8.38
2019-02-11T19:56:18.390Z,7.88
2019-02-11T20:01:25.559Z,8.92
2019-02-11T20:06:33.170Z,9.75
2019-02-11T20:11:40.820Z,10.44
2019-02-11T20:16:48.258Z,12.09
2019-02-11T20:21:56.003Z,12.16
2019-02-11T20:27:03.365Z,10.32
2019-02-11T20:32:10.499Z,10.34
2019-02-11T20:37:18.364Z,12.04
2019-02-11T20:42:25.646Z,11.26
2019-02-11T20:47:33.078Z,11.42
2019-02-11T20:52:41.024Z,11.68
2019-02-11T20:57:48.802Z,12.60
2019-02-11T21:02:55.988Z,12.08
2019-02-11T21:08:04.276Z,12.13
2019-02-11T21:13:11.823Z,11.46
2019-02-11T21:18:19.833Z,10.74
2019-02-11T21:23:26.978Z,12.52
2019-02-11T21:28:34.159Z,9.19
2019-02-11T21:33:42.570Z,10.24
2019-02-11T21:38:49.717Z,11.93
2019-02-11T21:43:56.871Z,13.19
2019-02-11T21:49:03.996Z,12.53
2019-02-11T21:54:11.585Z,11.50
2019-02-11T21:59:18.694Z,12.44
2019-02-11T22:04:25.784Z,12.25
2019-02-11T22:09:32.888Z,14.16
2019-02-11T22:14:39.954Z,11.47
2019-02-11T22:19:47.027Z,13.61
2019-02-11T22:24:56.346Z,11.79
2019-02-11T22:30:01.086Z,11.99
2019-02-11T22:35:08.202Z,11.41
2019-02-11T22:40:15.292Z,10.75
2019-02-11T22:45:22.416Z,11.79
2019-02-11T22:50:29.529Z,11.07
2019-02-11T22:55:36.656Z,11.42
2019-02-11T23:00:43.764Z,11.29
2019-02-11T23:05:50.866Z,12.30
2019-02-11T23:10:57.999Z,12.49
2019-02-11T23:16:05.141Z,13.01
2019-02-11T23:21:12.232Z,13.80
2019-02-11T23:26:19.419Z,12.40
2019-02-11T23:31:26.496Z,11.43
2019-02-11T23:36:33.593Z,10.81
2019-02-11T23:41:40.698Z,10.89
2019-02-11T23:46:48.115Z,10.51
2019-02-11T23:51:57.407Z,10.14
2019-02-11T23:57:04.489Z,12.22
